createdAt,value
2018-12-29T00:01:31.059Z,-0.75
2018-12-29T00:04:02.068Z,-0.79
2018-12-29T00:06:32.991Z,-0.80
2018-12-29T00:09:05.381Z,-0.78
2018-12-29T00:11:36.376Z,-0.85
2018-12-29T00:14:07.266Z,-0.85
2018-12-29T00:16:38.273Z,-0.80
2018-12-29T00:19:09.497Z,-0.73
2018-12-29T00:21:40.548Z,-0.70
2018-12-29T00:24:11.515Z,-0.72
2018-12-29T00:26:46.425Z,-0.67
2018-12-29T00:29:18.972Z,-0.72
2018-12-29T00:31:49.983Z,-0.77
2018-12-29T00:34:20.991Z,-0.84
2018-12-29T00:36:51.928Z,-0.85
2018-12-29T00:39:22.951Z,-0.90
2018-12-29T00:41:54.076Z,-0.88
2018-12-29T00:44:25.083Z,-0.84
2018-12-29T00:46:56.041Z,-0.83
2018-12-29T00:49:27.030Z,-0.77
2018-12-29T00:51:58.197Z,-0.76
2018-12-29T00:54:31.761Z,-0.74
2018-12-29T00:57:02.801Z,-0.74
2018-12-29T00:59:33.870Z,-0.75
2018-12-29T01:02:04.832Z,-0.81
2018-12-29T01:04:35.878Z,-0.81
2018-12-29T01:07:06.959Z,-0.85
2018-12-29T01:09:37.869Z,-0.89
2018-12-29T01:12:08.858Z,-0.88
2018-12-29T01:14:39.783Z,-0.82
2018-12-29T01:17:10.761Z,-0.83
2018-12-29T01:19:41.784Z,-0.75
2018-12-29T01:22:12.814Z,-0.70
2018-12-29T01:24:43.861Z,-0.70
2018-12-29T01:27:14.920Z,-0.69
2018-12-29T01:29:45.842Z,-0.74
2018-12-29T01:32:16.788Z,-0.82
2018-12-29T01:34:47.672Z,-0.89
2018-12-29T01:37:18.643Z,-0.98
2018-12-29T01:39:49.590Z,-0.91
2018-12-29T01:42:20.615Z,-0.96
2018-12-29T01:44:51.643Z,-1.00
2018-12-29T01:47:22.585Z,-0.99
2018-12-29T01:49:53.630Z,-1.01
2018-12-29T01:52:27.593Z,-1.05
2018-12-29T01:55:03.149Z,-1.02
2018-12-29T01:57:34.165Z,-0.97
2018-12-29T02:00:05.990Z,-0.94
2018-12-29T02:02:36.989Z,-0.92
2018-12-29T02:05:10.847Z,-0.94
2018-12-29T02:07:41.850Z,-1.05
2018-12-29T02:10:12.893Z,-1.11
2018-12-29T02:12:43.814Z,-1.08
2018-12-29T02:15:14.772Z,-1.08
2018-12-29T02:17:45.745Z,-1.06
2018-12-29T02:20:16.770Z,-1.07
2018-12-29T02:22:47.701Z,-1.05
2018-12-29T02:25:18.759Z,-1.02
2018-12-29T02:27:49.697Z,-0.97
2018-12-29T02:30:20.753Z,-0.98
2018-12-29T02:32:51.683Z,-1.01
2018-12-29T02:35:22.737Z,-1.04
2018-12-29T02:37:53.641Z,-1.04
2018-12-29T02:40:24.705Z,-1.02
2018-12-29T02:42:55.740Z,-1.02
2018-12-29T02:45:33.049Z,-1.03
2018-12-29T02:47:59.461Z,-1.02
2018-12-29T02:50:30.450Z,-1.08
2018-12-29T02:53:01.353Z,-1.07
2018-12-29T02:55:35.040Z,-1.10
2018-12-29T02:58:06.120Z,-1.13
2018-12-29T03:00:37.029Z,-1.16
2018-12-29T03:03:08.058Z,-1.20
2018-12-29T03:05:39.051Z,-1.22
2018-12-29T03:08:09.939Z,-1.25
2018-12-29T03:10:41.261Z,-1.28
2018-12-29T03:13:12.732Z,-1.24
2018-12-29T03:15:43.804Z,-1.24
2018-12-29T03:18:14.772Z,-1.24
2018-12-29T03:20:45.768Z,-1.24
2018-12-29T03:23:16.877Z,-1.24
2018-12-29T03:25:47.967Z,-1.26
2018-12-29T03:28:18.937Z,-1.26
2018-12-29T03:30:49.837Z,-1.26
2018-12-29T03:33:20.846Z,-1.24
2018-12-29T03:35:51.807Z,-1.21
2018-12-29T03:38:22.729Z,-1.14
2018-12-29T03:40:53.683Z,-1.12
2018-12-29T03:43:24.718Z,-1.13
2018-12-29T03:45:55.710Z,-1.11
2018-12-29T03:48:26.804Z,-1.09
2018-12-29T03:50:57.754Z,-1.05
2018-12-29T03:53:28.796Z,-1.06
2018-12-29T03:55:59.848Z,-1.03
2018-12-29T03:58:31.023Z,-1.03
2018-12-29T04:01:02.071Z,-1.05
2018-12-29T04:03:32.969Z,-1.07
2018-12-29T04:06:03.939Z,-1.07
2018-12-29T04:08:34.908Z,-1.04
2018-12-29T04:11:05.821Z,-1.02
2018-12-29T04:13:36.726Z,-0.96
2018-12-29T04:16:07.807Z,-0.98
2018-12-29T04:18:38.734Z,-0.97
2018-12-29T04:21:09.607Z,-0.91
2018-12-29T04:23:40.511Z,-0.90
2018-12-29T04:26:11.499Z,-0.88
2018-12-29T04:28:42.809Z,-0.84
2018-12-29T04:31:13.750Z,-0.80
2018-12-29T04:33:44.730Z,-0.82
2018-12-29T04:36:15.642Z,-0.86
2018-12-29T04:38:46.626Z,-0.82
2018-12-29T04:41:17.512Z,-0.79
2018-12-29T04:43:48.403Z,-0.75
2018-12-29T04:46:19.520Z,-0.69
2018-12-29T04:48:50.486Z,-0.72
2018-12-29T04:51:21.418Z,-0.70
2018-12-29T04:53:52.465Z,-0.72
2018-12-29T04:56:25.074Z,-0.74
2018-12-29T04:58:56.068Z,-0.74
2018-12-29T05:01:27.082Z,-0.75
2018-12-29T05:03:58.054Z,-0.70
2018-12-29T05:06:29.058Z,-0.67
2018-12-29T05:09:00.032Z,-0.72
2018-12-29T05:11:30.991Z,-0.70
2018-12-29T05:14:02.146Z,-0.72
2018-12-29T05:16:33.012Z,-0.71
2018-12-29T05:19:04.065Z,-0.76
2018-12-29T05:21:35.027Z,-0.75
2018-12-29T05:24:06.343Z,-0.75
2018-12-29T05:26:37.214Z,-0.78
2018-12-29T05:29:08.198Z,-0.80
2018-12-29T05:31:39.183Z,-0.78
2018-12-29T05:34:10.116Z,-0.78
2018-12-29T05:36:41.116Z,-0.74
2018-12-29T05:39:12.086Z,-0.75
2018-12-29T05:41:43.134Z,-0.71
2018-12-29T05:44:13.194Z,-0.66
2018-12-29T05:46:44.594Z,-0.63
2018-12-29T05:49:15.601Z,-0.58
2018-12-29T05:51:46.581Z,-0.57
2018-12-29T05:54:17.486Z,-0.59
2018-12-29T05:56:48.468Z,-0.70
2018-12-29T05:59:19.488Z,-0.70
2018-12-29T06:01:50.486Z,-0.65
2018-12-29T06:04:21.430Z,-0.63
2018-12-29T06:06:52.476Z,-0.65
2018-12-29T06:09:23.449Z,-0.70
2018-12-29T06:11:54.480Z,-0.73
2018-12-29T06:14:25.464Z,-0.78
2018-12-29T06:16:56.674Z,-0.75
2018-12-29T06:19:27.671Z,-0.74
2018-12-29T06:21:58.627Z,-0.70
2018-12-29T06:24:29.523Z,-0.72
2018-12-29T06:27:00.529Z,-0.69
2018-12-29T06:29:31.499Z,-0.65
2018-12-29T06:32:02.560Z,-0.65
2018-12-29T06:34:33.458Z,-0.60
2018-12-29T06:37:04.360Z,-0.58
2018-12-29T06:39:35.251Z,-0.54
2018-12-29T06:42:06.165Z,-0.55
2018-12-29T06:44:37.084Z,-0.51
2018-12-29T06:47:08.102Z,-0.42
2018-12-29T06:49:39.079Z,-0.30
2018-12-29T06:52:10.064Z,-0.19
2018-12-29T06:54:41.012Z,-0.23
2018-12-29T06:57:11.931Z,-0.26
2018-12-29T06:59:42.975Z,-0.31
2018-12-29T07:02:14.007Z,-0.39
2018-12-29T07:04:45.080Z,-0.42
2018-12-29T07:07:15.984Z,-0.48
2018-12-29T07:09:47.013Z,-0.51
2018-12-29T07:12:18.163Z,-0.56
2018-12-29T07:14:49.262Z,-0.57
2018-12-29T07:17:20.187Z,-0.57
2018-12-29T07:19:51.190Z,-0.55
2018-12-29T07:22:22.094Z,-0.54
2018-12-29T07:24:53.155Z,-0.54
2018-12-29T07:27:24.197Z,-0.53
2018-12-29T07:29:55.198Z,-0.51
2018-12-29T07:32:26.110Z,-0.50
2018-12-29T07:34:56.989Z,-0.52
2018-12-29T07:37:27.895Z,-0.47
2018-12-29T07:39:58.916Z,-0.43
2018-12-29T07:42:29.898Z,-0.45
2018-12-29T07:45:00.797Z,-0.44
2018-12-29T07:47:31.733Z,-0.39
2018-12-29T07:50:02.671Z,-0.36
2018-12-29T07:52:33.649Z,-0.34
2018-12-29T07:55:04.895Z,-0.38
2018-12-29T07:57:35.897Z,-0.33
2018-12-29T08:00:07.593Z,-0.33
2018-12-29T08:02:38.592Z,-0.33
2018-12-29T08:05:09.670Z,-0.30
2018-12-29T08:07:40.634Z,-0.32
2018-12-29T08:10:11.615Z,-0.27
2018-12-29T08:12:42.591Z,-0.24
2018-12-29T08:15:13.634Z,-0.21
2018-12-29T08:17:44.737Z,-0.15
2018-12-29T08:20:15.684Z,-0.14
2018-12-29T08:22:46.662Z,-0.13
2018-12-29T08:25:17.594Z,-0.09
2018-12-29T08:27:48.497Z,-0.06
2018-12-29T08:30:19.475Z,0.08
2018-12-29T08:32:50.444Z,0.19
2018-12-29T08:35:21.422Z,0.26
2018-12-29T08:37:52.298Z,0.43
2018-12-29T08:40:23.339Z,0.56
2018-12-29T08:42:54.397Z,0.78
2018-12-29T08:45:25.385Z,0.69
2018-12-29T08:47:56.273Z,0.62
2018-12-29T08:50:27.200Z,0.46
2018-12-29T08:52:58.252Z,0.41
2018-12-29T08:55:30.033Z,0.75
2018-12-29T08:58:01.151Z,0.53
2018-12-29T09:00:32.074Z,0.43
2018-12-29T09:03:03.196Z,0.36
2018-12-29T09:05:34.169Z,0.32
2018-12-29T09:08:05.141Z,0.31
2018-12-29T09:10:36.291Z,0.30
2018-12-29T09:13:07.524Z,0.27
2018-12-29T09:15:39.343Z,0.31
2018-12-29T09:18:10.358Z,0.34
2018-12-29T09:20:41.346Z,0.31
2018-12-29T09:23:12.412Z,0.34
2018-12-29T09:25:43.406Z,0.41
2018-12-29T09:28:14.531Z,0.43
2018-12-29T09:30:45.632Z,0.46
2018-12-29T09:33:16.778Z,0.45
2018-12-29T09:35:47.838Z,0.44
2018-12-29T09:38:18.769Z,0.37
2018-12-29T09:40:49.776Z,0.33
2018-12-29T09:43:20.799Z,0.33
2018-12-29T09:45:51.782Z,0.36
2018-12-29T09:48:22.701Z,0.40
2018-12-29T09:50:53.635Z,0.49
2018-12-29T09:53:24.538Z,0.58
2018-12-29T09:55:56.011Z,0.55
2018-12-29T09:58:27.218Z,0.54
2018-12-29T10:00:58.180Z,0.51
2018-12-29T10:03:29.145Z,0.50
2018-12-29T10:06:00.076Z,0.52
2018-12-29T10:08:31.025Z,0.56
2018-12-29T10:11:02.020Z,0.59
2018-12-29T10:13:32.993Z,0.64
2018-12-29T10:16:03.957Z,0.67
2018-12-29T10:18:35.059Z,0.76
2018-12-29T10:21:06.151Z,0.84
2018-12-29T10:23:37.130Z,0.93
2018-12-29T10:26:08.036Z,1.01
2018-12-29T10:28:39.021Z,1.00
2018-12-29T10:31:09.932Z,1.02
2018-12-29T10:33:40.831Z,1.34
2018-12-29T10:36:11.789Z,1.40
2018-12-29T10:38:42.705Z,1.40
2018-12-29T10:41:13.694Z,1.49
2018-12-29T10:43:44.583Z,1.54
2018-12-29T10:46:15.578Z,1.53
2018-12-29T10:48:46.511Z,1.47
2018-12-29T10:51:17.467Z,1.39
2018-12-29T10:53:48.399Z,1.39
2018-12-29T10:56:19.359Z,1.44
2018-12-29T10:58:50.409Z,1.49
2018-12-29T11:01:21.429Z,1.59
2018-12-29T11:03:52.468Z,1.70
2018-12-29T11:06:23.424Z,1.77
2018-12-29T11:08:55.088Z,1.86
2018-12-29T11:11:26.037Z,1.82
2018-12-29T11:13:56.994Z,1.83
2018-12-29T11:16:27.965Z,1.87
2018-12-29T11:19:00.305Z,1.90
2018-12-29T11:21:31.210Z,1.97
2018-12-29T11:24:02.106Z,1.94
2018-12-29T11:26:33.021Z,1.87
2018-12-29T11:29:04.014Z,1.85
2018-12-29T11:31:34.974Z,1.80
2018-12-29T11:34:05.912Z,1.86
2018-12-29T11:36:36.807Z,1.82
2018-12-29T11:39:07.917Z,1.79
2018-12-29T11:41:38.915Z,1.72
2018-12-29T11:44:11.592Z,1.78
2018-12-29T11:46:42.481Z,1.80
2018-12-29T11:49:17.957Z,1.84
2018-12-29T11:51:47.321Z,1.93
2018-12-29T11:54:18.241Z,2.02
2018-12-29T11:56:49.173Z,2.08
2018-12-29T11:59:20.174Z,2.01
2018-12-29T12:01:53.880Z,2.08
2018-12-29T12:04:24.931Z,2.06
2018-12-29T12:06:55.852Z,2.03
2018-12-29T12:09:27.079Z,2.00
2018-12-29T12:11:58.019Z,1.96
2018-12-29T12:14:29.042Z,1.97
2018-12-29T12:17:03.190Z,2.03
2018-12-29T12:19:34.259Z,1.93
2018-12-29T12:22:05.237Z,1.99
2018-12-29T12:24:36.136Z,2.05
2018-12-29T12:27:08.668Z,2.06
2018-12-29T12:29:40.029Z,2.06
2018-12-29T12:32:10.924Z,2.12
2018-12-29T12:34:43.575Z,2.11
2018-12-29T12:37:14.570Z,2.13
2018-12-29T12:39:45.990Z,2.17
2018-12-29T12:42:17.057Z,2.19
2018-12-29T12:44:47.907Z,2.20
2018-12-29T12:47:18.892Z,2.14
2018-12-29T12:49:49.783Z,2.13
2018-12-29T12:52:20.658Z,2.09
2018-12-29T12:54:51.728Z,2.09
2018-12-29T12:57:23.210Z,2.13
2018-12-29T12:59:54.364Z,2.14
2018-12-29T13:02:25.620Z,2.03
2018-12-29T13:04:56.665Z,2.00
2018-12-29T13:07:27.597Z,2.00
2018-12-29T13:09:58.594Z,2.02
2018-12-29T13:12:29.880Z,2.07
2018-12-29T13:15:00.842Z,2.14
2018-12-29T13:17:31.804Z,2.14
2018-12-29T13:20:02.887Z,2.14
2018-12-29T13:22:33.841Z,2.14
2018-12-29T13:25:05.166Z,2.11
2018-12-29T13:27:36.279Z,2.06
2018-12-29T13:30:08.095Z,2.10
2018-12-29T13:32:39.109Z,2.14
2018-12-29T13:35:10.275Z,2.14
2018-12-29T13:37:41.344Z,2.19
2018-12-29T13:40:12.316Z,2.22
2018-12-29T13:42:43.354Z,2.26
2018-12-29T13:45:14.478Z,2.24
2018-12-29T13:47:45.486Z,2.23
2018-12-29T13:50:16.572Z,2.25
2018-12-29T13:52:47.655Z,2.19
2018-12-29T13:55:18.698Z,2.15
2018-12-29T13:57:49.621Z,2.07
2018-12-29T14:00:20.584Z,2.01
2018-12-29T14:02:53.297Z,2.01
2018-12-29T14:05:24.239Z,2.02
2018-12-29T14:07:55.256Z,2.06
2018-12-29T14:10:26.190Z,2.03
2018-12-29T14:12:57.174Z,2.01
2018-12-29T14:15:28.242Z,2.03
2018-12-29T14:17:59.408Z,1.99
2018-12-29T14:20:30.470Z,1.99
2018-12-29T14:23:01.463Z,1.95
2018-12-29T14:25:32.378Z,1.98
2018-12-29T14:28:03.744Z,1.97
2018-12-29T14:30:34.713Z,1.95
2018-12-29T14:33:05.666Z,1.94
2018-12-29T14:35:36.649Z,1.88
2018-12-29T14:38:07.594Z,1.88
2018-12-29T14:40:38.642Z,1.87
2018-12-29T14:43:09.726Z,1.88
2018-12-29T14:45:40.770Z,1.90
2018-12-29T14:48:12.014Z,1.97
2018-12-29T14:50:43.145Z,1.92
2018-12-29T14:53:14.132Z,1.85
2018-12-29T14:55:45.238Z,1.87
2018-12-29T14:58:16.576Z,1.88
2018-12-29T15:00:47.599Z,1.90
2018-12-29T15:03:18.589Z,1.88
2018-12-29T15:05:49.558Z,1.87
2018-12-29T15:08:20.591Z,1.90
2018-12-29T15:10:51.505Z,1.89
2018-12-29T15:13:22.723Z,1.87
2018-12-29T15:15:53.761Z,1.89
2018-12-29T15:18:24.994Z,1.92
2018-12-29T15:20:56.334Z,1.89
2018-12-29T15:23:27.604Z,1.87
2018-12-29T15:25:58.540Z,1.87
2018-12-29T15:28:29.525Z,1.89
2018-12-29T15:31:00.537Z,1.87
2018-12-29T15:33:32.377Z,1.88
2018-12-29T15:36:03.358Z,1.86
2018-12-29T15:38:34.262Z,1.84
2018-12-29T15:41:05.533Z,1.85
2018-12-29T15:43:36.398Z,1.85
2018-12-29T15:46:07.628Z,1.85
2018-12-29T15:48:38.557Z,1.86
2018-12-29T15:51:09.646Z,1.85
2018-12-29T15:53:40.621Z,1.84
2018-12-29T15:56:11.494Z,1.86
2018-12-29T15:58:42.590Z,1.86
2018-12-29T16:01:13.963Z,1.86
2018-12-29T16:03:44.927Z,1.87
2018-12-29T16:06:15.906Z,1.91
2018-12-29T16:08:47.007Z,1.93
2018-12-29T16:11:26.009Z,1.94
2018-12-29T16:13:51.163Z,1.95
2018-12-29T16:16:22.188Z,1.96
2018-12-29T16:18:58.847Z,1.94
2018-12-29T16:21:25.842Z,1.91
2018-12-29T16:23:56.776Z,1.93
2018-12-29T16:26:27.802Z,1.93
2018-12-29T16:28:58.737Z,1.95
2018-12-29T16:31:29.686Z,1.94
2018-12-29T16:34:00.570Z,1.96
2018-12-29T16:36:31.845Z,1.98
2018-12-29T16:39:02.918Z,1.99
2018-12-29T16:41:33.974Z,2.02
2018-12-29T16:44:05.332Z,2.05
2018-12-29T16:46:36.723Z,2.09
2018-12-29T16:49:07.601Z,2.12
2018-12-29T16:51:38.576Z,2.15
2018-12-29T16:54:09.615Z,2.16
2018-12-29T16:56:40.932Z,2.16
2018-12-29T16:59:11.828Z,2.16
2018-12-29T17:01:42.872Z,2.17
2018-12-29T17:04:13.791Z,2.16
2018-12-29T17:06:46.462Z,2.16
2018-12-29T17:09:17.706Z,2.17
2018-12-29T17:11:52.529Z,2.16
2018-12-29T17:14:21.368Z,2.16
2018-12-29T17:16:52.467Z,2.15
2018-12-29T17:19:23.515Z,2.15
2018-12-29T17:21:58.162Z,2.16
2018-12-29T17:24:29.191Z,2.16
2018-12-29T17:27:00.195Z,2.17
2018-12-29T17:29:31.166Z,2.18
2018-12-29T17:32:02.186Z,2.19
2018-12-29T17:34:33.129Z,2.20
2018-12-29T17:37:04.092Z,2.19
2018-12-29T17:39:35.202Z,2.18
2018-12-29T17:42:06.195Z,2.18
2018-12-29T17:44:37.294Z,2.20
2018-12-29T17:47:08.259Z,2.21
2018-12-29T17:49:39.286Z,2.23
2018-12-29T17:52:10.312Z,2.23
2018-12-29T17:54:41.288Z,2.24
2018-12-29T17:57:12.271Z,2.24
2018-12-29T17:59:43.382Z,2.25
2018-12-29T18:02:14.282Z,2.26
2018-12-29T18:04:45.292Z,2.29
2018-12-29T18:07:16.365Z,2.30
2018-12-29T18:09:47.435Z,2.33
2018-12-29T18:12:18.564Z,2.34
2018-12-29T18:14:50.107Z,2.34
2018-12-29T18:17:21.367Z,2.34
2018-12-29T18:19:52.413Z,2.37
2018-12-29T18:22:23.382Z,2.37
2018-12-29T18:24:54.825Z,2.38
2018-12-29T18:27:25.797Z,2.38
2018-12-29T18:29:56.707Z,2.38
2018-12-29T18:32:29.655Z,2.40
2018-12-29T18:35:00.720Z,2.41
2018-12-29T18:37:31.714Z,2.43
2018-12-29T18:40:03.226Z,2.44
2018-12-29T18:42:34.247Z,2.47
2018-12-29T18:45:05.974Z,2.47
2018-12-29T18:47:37.223Z,2.48
2018-12-29T18:50:08.228Z,2.48
2018-12-29T18:52:39.555Z,2.50
2018-12-29T18:55:11.364Z,2.51
2018-12-29T18:57:42.388Z,2.52
2018-12-29T19:00:13.463Z,2.53
2018-12-29T19:02:44.463Z,2.57
2018-12-29T19:05:15.461Z,2.56
2018-12-29T19:07:46.320Z,2.56
2018-12-29T19:10:17.614Z,2.56
2018-12-29T19:12:48.561Z,2.54
2018-12-29T19:15:19.829Z,2.54
2018-12-29T19:17:51.360Z,2.52
2018-12-29T19:20:22.756Z,2.53
2018-12-29T19:22:53.949Z,2.51
2018-12-29T19:25:25.025Z,2.50
2018-12-29T19:27:55.990Z,2.50
2018-12-29T19:30:27.427Z,2.52
2018-12-29T19:32:58.760Z,2.50
2018-12-29T19:35:29.871Z,2.51
2018-12-29T19:38:01.025Z,2.50
2018-12-29T19:40:35.400Z,2.47
2018-12-29T19:43:06.959Z,2.44
2018-12-29T19:45:37.880Z,2.43
2018-12-29T19:48:08.868Z,2.40
2018-12-29T19:50:39.867Z,2.38
2018-12-29T19:53:11.334Z,2.34
2018-12-29T19:55:42.604Z,2.32
2018-12-29T19:58:13.604Z,2.31
2018-12-29T20:00:44.644Z,2.30
2018-12-29T20:03:16.203Z,2.32
2018-12-29T20:05:47.842Z,2.30
2018-12-29T20:08:18.818Z,2.25
2018-12-29T20:10:49.883Z,2.28
2018-12-29T20:13:21.148Z,2.30
2018-12-29T20:15:52.161Z,2.30
2018-12-29T20:18:23.413Z,2.27
2018-12-29T20:20:54.372Z,2.21
2018-12-29T20:23:25.387Z,2.23
2018-12-29T20:25:56.440Z,2.21
2018-12-29T20:28:27.344Z,2.20
2018-12-29T20:30:58.250Z,2.13
2018-12-29T20:33:29.517Z,2.07
2018-12-29T20:36:00.419Z,2.06
2018-12-29T20:38:31.394Z,2.07
2018-12-29T20:41:02.298Z,2.09
2018-12-29T20:43:33.229Z,2.11
2018-12-29T20:46:04.217Z,2.16
2018-12-29T20:48:35.313Z,2.16
2018-12-29T20:51:06.268Z,2.18
2018-12-29T20:53:37.278Z,2.18
2018-12-29T20:56:08.543Z,2.16
2018-12-29T20:58:39.504Z,2.17
2018-12-29T21:01:10.490Z,2.17
2018-12-29T21:03:41.622Z,2.18
2018-12-29T21:06:12.628Z,2.18
2018-12-29T21:08:43.618Z,2.18
2018-12-29T21:11:14.514Z,2.19
2018-12-29T21:13:45.474Z,2.22
2018-12-29T21:16:16.397Z,2.22
2018-12-29T21:18:47.378Z,2.23
2018-12-29T21:21:18.386Z,2.23
2018-12-29T21:23:49.951Z,2.25
2018-12-29T21:26:21.025Z,2.21
2018-12-29T21:28:51.907Z,2.24
2018-12-29T21:31:23.169Z,2.25
2018-12-29T21:33:54.081Z,2.27
2018-12-29T21:36:27.039Z,2.27
2018-12-29T21:38:57.963Z,2.28
2018-12-29T21:41:29.237Z,2.28
2018-12-29T21:44:00.252Z,2.29
2018-12-29T21:46:31.187Z,2.29
2018-12-29T21:49:02.088Z,2.30
2018-12-29T21:51:33.044Z,2.33
2018-12-29T21:54:04.430Z,2.36
2018-12-29T21:56:35.349Z,2.39
2018-12-29T21:59:06.389Z,2.44
2018-12-29T22:01:37.358Z,2.45
2018-12-29T22:04:08.473Z,2.45
2018-12-29T22:06:39.520Z,2.45
2018-12-29T22:09:10.606Z,2.48
2018-12-29T22:11:41.620Z,2.48
2018-12-29T22:14:12.590Z,2.49
2018-12-29T22:16:43.503Z,2.50
2018-12-29T22:19:14.477Z,2.53
2018-12-29T22:21:45.450Z,2.56
2018-12-29T22:24:16.423Z,2.58
2018-12-29T22:26:47.392Z,2.58
2018-12-29T22:29:18.673Z,2.59
2018-12-29T22:31:49.568Z,2.60
2018-12-29T22:34:20.470Z,2.61
2018-12-29T22:36:51.463Z,2.66
2018-12-29T22:39:22.466Z,2.72
2018-12-29T22:41:53.353Z,2.73
2018-12-29T22:44:24.373Z,2.75
2018-12-29T22:46:55.373Z,2.76
2018-12-29T22:49:26.332Z,2.79
2018-12-29T22:51:57.766Z,2.79
2018-12-29T22:54:28.785Z,2.80
2018-12-29T22:56:59.820Z,2.78
2018-12-29T22:59:30.704Z,2.77
2018-12-29T23:02:01.933Z,2.79
2018-12-29T23:04:33.153Z,2.78
2018-12-29T23:07:04.308Z,2.78
2018-12-29T23:09:35.278Z,2.77
2018-12-29T23:12:06.507Z,2.76
2018-12-29T23:14:37.470Z,2.77
2018-12-29T23:17:08.782Z,2.75
2018-12-29T23:19:39.731Z,2.75
2018-12-29T23:22:10.670Z,2.77
2018-12-29T23:24:41.890Z,2.76
2018-12-29T23:27:12.939Z,2.79
2018-12-29T23:29:43.960Z,2.77
2018-12-29T23:32:14.938Z,2.79
2018-12-29T23:34:45.840Z,2.78
2018-12-29T23:37:16.974Z,2.80
2018-12-29T23:39:48.092Z,2.77
2018-12-29T23:42:19.330Z,2.74
2018-12-29T23:44:50.360Z,2.73
2018-12-29T23:47:21.584Z,2.72
2018-12-29T23:49:52.826Z,2.73
2018-12-29T23:52:23.939Z,2.73
2018-12-29T23:54:54.955Z,2.71
2018-12-29T23:57:25.990Z,2.75
2018-12-29T23:59:58.563Z,2.78
